Time;durP1;ratioP1;P1;durP2;ratioP2;P2;SDS_P1;SDS_P2;PMS_P1;PMS_P2;Temp;Humidity;BMP_temperature;BMP_pressure;BME280_temperature;BME280_humidity;BME280_pressure;Samples;Min_cycle;Max_cycle;Signal;HPM_P1;HPM_P2
2023/10/20 00:00:39;;;;;;;6.07;3.60;;;16.10;97.20;;;;;;5016443;28;20045;-74
2023/10/20 00:03:06;;;;;;;7.18;3.90;;;16.10;97.20;;;;;;5014935;28;20036;-77
2023/10/20 00:05:33;;;;;;;8.85;3.70;;;16.10;97.20;;;;;;5012438;28;20171;-75
2023/10/20 00:08:00;;;;;;;7.00;3.85;;;16.10;97.20;;;;;;5019445;28;20483;-75
2023/10/20 00:10:26;;;;;;;6.68;3.58;;;16.00;97.20;;;;;;5016499;28;20140;-76
2023/10/20 00:12:52;;;;;;;5.97;3.47;;;16.10;97.20;;;;;;5019327;28;20223;-76
2023/10/20 00:15:20;;;;;;;8.52;3.63;;;16.00;97.30;;;;;;5014562;28;20436;-75
2023/10/20 00:17:45;;;;;;;8.40;4.20;;;16.10;97.30;;;;;;5021812;28;20053;-75
2023/10/20 00:20:12;;;;;;;6.13;3.50;;;16.10;97.40;;;;;;5020820;28;20514;-75
2023/10/20 00:22:38;;;;;;;8.23;3.95;;;16.10;97.30;;;;;;5014316;28;20499;-76
2023/10/20 00:25:04;;;;;;;7.25;4.30;;;16.10;97.30;;;;;;5018502;28;20037;-75
2023/10/20 00:27:30;;;;;;;7.35;3.95;;;16.10;97.30;;;;;;5021090;28;20091;-74
2023/10/20 00:29:55;;;;;;;7.93;3.60;;;16.00;97.30;;;;;;5012398;28;20033;-75
2023/10/20 00:32:21;;;;;;;6.20;3.65;;;16.00;97.30;;;;;;5016670;28;20036;-74
2023/10/20 00:34:46;;;;;;;6.22;3.40;;;16.10;97.40;;;;;;5012315;28;20038;-74
2023/10/20 00:37:12;;;;;;;6.18;3.58;;;16.10;97.40;;;;;;5018553;28;20103;-75
2023/10/20 00:39:38;;;;;;;6.22;3.53;;;16.10;97.40;;;;;;5007397;28;20025;-73
2023/10/20 00:42:03;;;;;;;6.05;3.53;;;16.10;97.40;;;;;;5020593;28;20033;-76
2023/10/20 00:44:29;;;;;;;7.20;3.92;;;16.10;97.30;;;;;;5011157;28;20057;-75
2023/10/20 00:46:56;;;;;;;7.25;3.75;;;16.00;97.30;;;;;;5018931;28;20083;-74
2023/10/20 00:49:22;;;;;;;7.55;3.70;;;16.10;97.40;;;;;;5022587;28;20064;-75
2023/10/20 00:51:48;;;;;;;9.18;3.78;;;16.00;97.30;;;;;;5019266;28;20238;-74
2023/10/20 00:54:15;;;;;;;7.35;3.58;;;16.10;97.40;;;;;;5019001;28;20025;-75
2023/10/20 00:56:41;;;;;;;8.77;3.60;;;16.10;97.30;;;;;;5020098;28;20037;-74
2023/10/20 00:59:11;;;;;;;7.13;3.60;;;16.00;97.30;;;;;;5021107;28;20038;-74
2023/10/20 01:01:37;;;;;;;6.05;3.30;;;16.00;97.30;;;;;;5007816;28;20036;-73
2023/10/20 01:04:03;;;;;;;6.75;4.10;;;16.10;97.40;;;;;;5015915;28;20439;-74
2023/10/20 01:06:29;;;;;;;7.78;4.10;;;16.00;97.40;;;;;;5018180;28;20038;-74
2023/10/20 01:08:58;;;;;;;6.10;3.58;;;16.00;97.30;;;;;;5016979;28;20029;-73
2023/10/20 01:11:24;;;;;;;8.50;3.75;;;16.00;97.30;;;;;;5017366;28;20042;-74
2023/10/20 01:13:50;;;;;;;12.07;4.15;;;16.10;97.30;;;;;;5024016;28;20048;-74
2023/10/20 01:16:16;;;;;;;7.70;3.78;;;16.10;97.30;;;;;;5019140;28;20037;-74
2023/10/20 01:18:43;;;;;;;7.45;3.85;;;16.10;97.30;;;;;;5020413;28;20030;-75
2023/10/20 01:21:09;;;;;;;6.97;3.78;;;16.10;97.30;;;;;;5022141;28;20034;-72
2023/10/20 01:23:35;;;;;;;7.43;3.50;;;16.00;97.30;;;;;;5024191;28;20021;-75
2023/10/20 01:26:02;;;;;;;7.80;3.90;;;16.10;97.30;;;;;;5015914;28;20101;-73
2023/10/20 01:28:27;;;;;;;6.22;3.40;;;16.00;97.30;;;;;;5023790;28;20036;-75
2023/10/20 01:30:53;;;;;;;7.38;3.63;;;16.00;97.30;;;;;;5018403;28;20037;-76
2023/10/20 01:33:19;;;;;;;7.97;4.03;;;16.10;97.30;;;;;;5021169;28;20543;-75
2023/10/20 01:35:45;;;;;;;7.18;3.83;;;16.00;97.20;;;;;;5014017;28;20121;-75
2023/10/20 01:38:10;;;;;;;6.55;3.88;;;16.00;97.20;;;;;;5025485;28;20029;-77
2023/10/20 01:40:36;;;;;;;6.45;3.78;;;16.00;97.30;;;;;;5019730;28;20083;-74
2023/10/20 01:43:01;;;;;;;5.75;3.70;;;16.00;97.30;;;;;;5018801;28;20037;-75
2023/10/20 01:45:28;;;;;;;8.15;4.07;;;16.00;97.30;;;;;;5022929;28;20029;-74
2023/10/20 01:47:54;;;;;;;7.07;4.38;;;16.00;97.40;;;;;;5021899;28;20029;-73
2023/10/20 01:50:20;;;;;;;6.15;3.92;;;16.00;97.50;;;;;;5023741;28;20054;-74
2023/10/20 01:52:46;;;;;;;6.85;4.05;;;15.90;97.50;;;;;;5021931;28;20045;-74
2023/10/20 01:55:12;;;;;;;6.65;3.63;;;16.00;97.50;;;;;;5017895;28;20060;-74
2023/10/20 01:57:37;;;;;;;7.07;4.13;;;15.90;97.60;;;;;;5021207;28;20114;-73
2023/10/20 02:00:07;;;;;;;7.35;4.40;;;16.00;97.60;;;;;;5017121;28;20030;-73
2023/10/20 02:02:33;;;;;;;6.22;3.83;;;16.00;97.60;;;;;;5017676;28;20384;-74
2023/10/20 02:04:59;;;;;;;7.45;4.60;;;15.90;97.50;;;;;;5014201;28;20033;-73
2023/10/20 02:07:24;;;;;;;8.00;4.40;;;15.90;97.60;;;;;;5019026;28;20540;-75
2023/10/20 02:09:50;;;;;;;7.85;4.30;;;15.90;97.60;;;;;;5020834;28;20427;-75
2023/10/20 02:12:16;;;;;;;8.10;4.40;;;15.90;97.70;;;;;;5022628;28;20025;-74
2023/10/20 02:14:41;;;;;;;7.60;4.50;;;15.90;97.70;;;;;;5021337;28;20044;-74
2023/10/20 02:17:07;;;;;;;6.82;4.53;;;15.90;97.70;;;;;;5017006;28;20025;-74
2023/10/20 02:19:32;;;;;;;8.60;4.28;;;15.90;97.80;;;;;;5019441;28;20029;-73
2023/10/20 02:22:01;;;;;;;6.43;3.97;;;15.90;97.70;;;;;;5022584;28;20040;-74
2023/10/20 02:24:27;;;;;;;6.25;4.28;;;15.90;97.70;;;;;;5018140;28;20037;-73
2023/10/20 02:26:52;;;;;;;8.10;4.50;;;15.90;97.70;;;;;;5017746;28;20041;-73
2023/10/20 02:29:18;;;;;;;8.20;4.72;;;15.90;97.80;;;;;;5020266;28;20022;-76
2023/10/20 02:31:44;;;;;;;7.40;4.97;;;15.80;97.80;;;;;;5021766;28;20042;-73
2023/10/20 02:34:11;;;;;;;7.97;4.30;;;15.90;97.90;;;;;;5018610;28;20022;-74
2023/10/20 02:36:37;;;;;;;7.22;4.72;;;15.90;97.90;;;;;;5021469;28;20120;-74
2023/10/20 02:39:03;;;;;;;6.28;4.20;;;15.90;97.90;;;;;;5020661;28;20104;-74
2023/10/20 02:41:28;;;;;;;10.05;5.20;;;15.90;97.90;;;;;;5017326;28;20030;-75
2023/10/20 02:43:54;;;;;;;8.30;5.00;;;15.90;97.90;;;;;;5020369;28;20038;-75
2023/10/20 02:46:20;;;;;;;6.85;4.68;;;15.90;97.90;;;;;;5021694;28;20383;-75
2023/10/20 02:48:45;;;;;;;6.25;4.50;;;15.90;97.90;;;;;;5021577;28;20075;-75
2023/10/20 02:51:13;;;;;;;7.78;4.85;;;15.90;97.90;;;;;;5014848;28;20057;-74
2023/10/20 02:53:41;;;;;;;8.77;4.57;;;15.90;98.00;;;;;;5020195;28;20030;-74
2023/10/20 02:56:17;;;;;;;7.93;5.20;;;15.80;98.00;;;;;;5017464;28;20045;-74
2023/10/20 02:58:45;;;;;;;8.18;4.38;;;15.90;98.10;;;;;;5020254;28;20034;-74
2023/10/20 03:01:14;;;;;;;6.35;4.25;;;15.80;98.00;;;;;;5018963;28;20124;-73
2023/10/20 03:03:40;;;;;;;6.88;4.82;;;15.90;98.10;;;;;;5010142;28;20026;-74
2023/10/20 03:06:09;;;;;;;10.75;5.78;;;15.90;98.10;;;;;;5019379;28;20038;-75
2023/10/20 03:08:36;;;;;;;8.18;4.88;;;15.90;98.00;;;;;;5012715;28;20554;-73
2023/10/20 03:11:04;;;;;;;7.97;5.32;;;15.90;98.00;;;;;;5010370;28;20775;-73
2023/10/20 03:13:30;;;;;;;9.15;5.25;;;15.90;98.00;;;;;;5014548;28;20408;-77
2023/10/20 03:15:56;;;;;;;9.30;5.55;;;15.80;98.10;;;;;;5016270;28;20508;-74
2023/10/20 03:18:23;;;;;;;8.65;5.43;;;15.90;98.10;;;;;;5022923;28;20035;-74
2023/10/20 03:20:50;;;;;;;7.88;5.45;;;15.90;98.20;;;;;;5011252;28;20030;-76
2023/10/20 03:23:18;;;;;;;7.78;5.63;;;15.80;98.20;;;;;;5017018;28;20083;-75
2023/10/20 03:25:43;;;;;;;6.97;5.22;;;15.90;98.20;;;;;;5016989;28;20055;-74
2023/10/20 03:28:09;;;;;;;8.43;4.93;;;15.90;98.30;;;;;;5018945;28;20423;-76
2023/10/20 03:30:38;;;;;;;8.85;6.03;;;15.90;98.30;;;;;;5020242;28;20025;-73
2023/10/20 03:33:08;;;;;;;8.27;5.68;;;15.80;98.30;;;;;;5018540;28;20053;-74
2023/10/20 03:35:33;;;;;;;10.40;6.05;;;15.80;98.30;;;;;;5014396;28;20283;-75
2023/10/20 03:38:00;;;;;;;11.88;6.43;;;15.80;98.30;;;;;;5018589;28;20085;-74
2023/10/20 03:40:31;;;;;;;8.98;6.40;;;15.80;98.40;;;;;;5014181;28;20042;-74
2023/10/20 03:42:59;;;;;;;6.85;5.40;;;15.80;98.40;;;;;;5017875;28;20064;-75
2023/10/20 03:45:25;;;;;;;7.80;6.10;;;15.80;98.50;;;;;;5019337;28;20038;-74
2023/10/20 03:47:51;;;;;;;8.57;6.15;;;15.80;98.60;;;;;;5016787;28;20060;-74
2023/10/20 03:50:17;;;;;;;7.72;5.72;;;15.80;98.70;;;;;;5009258;28;20045;-75
2023/10/20 03:52:45;;;;;;;8.95;5.47;;;15.80;98.70;;;;;;5021406;28;20402;-74
2023/10/20 03:55:15;;;;;;;8.20;6.15;;;15.80;98.70;;;;;;5007267;28;20069;-75
2023/10/20 03:57:44;;;;;;;9.52;6.13;;;15.80;98.70;;;;;;5021547;28;20045;-76
2023/10/20 04:00:35;;;;;;;8.52;5.85;;;15.80;98.70;;;;;;5018403;28;20057;-75
2023/10/20 04:03:01;;;;;;;9.20;6.07;;;15.80;98.80;;;;;;5012574;28;20654;-75
2023/10/20 04:05:26;;;;;;;8.65;6.38;;;15.80;98.80;;;;;;5018625;28;20071;-74
2023/10/20 04:07:52;;;;;;;8.88;6.28;;;15.80;98.80;;;;;;5015763;28;20404;-74
2023/10/20 04:10:21;;;;;;;8.60;5.68;;;15.80;98.80;;;;;;5017080;28;20041;-75
2023/10/20 04:12:47;;;;;;;9.13;6.05;;;15.80;98.90;;;;;;5019243;28;20393;-74
2023/10/20 04:15:17;;;;;;;8.05;6.13;;;15.80;98.90;;;;;;5018909;28;20030;-75
2023/10/20 04:17:55;;;;;;;10.02;7.00;;;15.80;98.90;;;;;;5022130;28;20048;-75
2023/10/20 04:20:21;;;;;;;8.00;6.65;;;15.80;99.00;;;;;;5015525;28;20037;-74
2023/10/20 04:22:51;;;;;;;7.82;6.38;;;15.80;99.00;;;;;;5016979;28;20026;-74
2023/10/20 04:25:21;;;;;;;9.45;6.40;;;15.80;99.10;;;;;;5010754;28;20621;-74
2023/10/20 04:27:52;;;;;;;9.75;6.80;;;15.80;99.10;;;;;;5018344;28;20030;-75
2023/10/20 04:52:06;;;;;;;11.70;8.98;;;15.70;99.30;;;;;;5018332;28;20033;-75
2023/10/20 04:54:45;;;;;;;13.18;8.77;;;15.70;99.20;;;;;;5019499;28;20026;-75
2023/10/20 04:57:29;;;;;;;13.48;8.95;;;15.70;99.30;;;;;;5017746;28;20503;-74
2023/10/20 05:02:43;;;;;;;13.88;10.10;;;15.60;99.40;;;;;;5023640;28;20522;-74
2023/10/20 05:05:53;;;;;;;11.35;9.07;;;15.60;99.50;;;;;;5018748;28;20451;-74
2023/10/20 05:08:04;;;;;;;12.10;10.23;;;15.60;99.50;;;;;;5012725;28;20038;-74
2023/10/20 05:10:31;;;;;;;14.15;11.05;;;15.60;99.50;;;;;;5017487;28;20454;-74
2023/10/20 05:12:57;;;;;;;13.38;11.60;;;15.60;99.60;;;;;;5021391;28;20026;-73
2023/10/20 05:15:22;;;;;;;13.77;12.25;;;15.60;99.70;;;;;;5012656;28;20033;-74
2023/10/20 05:17:50;;;;;;;16.15;12.80;;;15.60;99.70;;;;;;5019303;28;20057;-74
2023/10/20 05:20:20;;;;;;;14.93;13.25;;;15.60;99.80;;;;;;5019199;28;20522;-75
2023/10/20 05:22:46;;;;;;;15.13;13.52;;;15.60;99.80;;;;;;5019659;28;20037;-74
2023/10/20 05:25:12;;;;;;;16.33;13.65;;;15.60;99.80;;;;;;5023055;28;20072;-75
2023/10/20 05:27:39;;;;;;;16.00;14.38;;;15.60;99.80;;;;;;5015938;28;20056;-74
2023/10/20 05:30:05;;;;;;;17.48;15.57;;;15.60;99.80;;;;;;5021409;28;20040;-75
2023/10/20 05:32:31;;;;;;;15.45;13.85;;;15.60;99.80;;;;;;5023173;28;20108;-75
2023/10/20 05:35:01;;;;;;;17.42;15.27;;;15.60;99.80;;;;;;5019634;28;20141;-77
2023/10/20 05:37:27;;;;;;;19.63;17.52;;;15.60;99.80;;;;;;5019702;28;20488;-76
2023/10/20 05:39:53;;;;;;;19.75;16.23;;;15.60;99.90;;;;;;5022961;28;20044;-75
2023/10/20 05:42:19;;;;;;;18.40;16.38;;;15.60;99.90;;;;;;5020225;28;20029;-75
2023/10/20 05:44:58;;;;;;;20.05;17.23;;;15.60;99.90;;;;;;5020516;28;20530;-73
2023/10/20 05:47:25;;;;;;;19.25;17.25;;;15.50;99.90;;;;;;5022217;28;20037;-73
2023/10/20 05:49:50;;;;;;;18.67;16.70;;;15.60;99.90;;;;;;5011678;28;20022;-73
2023/10/20 05:52:16;;;;;;;19.23;17.30;;;15.50;99.90;;;;;;5017638;28;20037;-75
2023/10/20 05:54:42;;;;;;;20.50;18.40;;;15.50;99.90;;;;;;5018995;28;20121;-74
2023/10/20 05:57:08;;;;;;;20.75;18.27;;;15.60;99.90;;;;;;5017206;28;20108;-74
2023/10/20 05:59:33;;;;;;;22.02;19.83;;;15.50;99.90;;;;;;5019805;28;20049;-74
2023/10/20 06:01:59;;;;;;;21.00;18.75;;;15.50;99.90;;;;;;5015629;28;20121;-74
2023/10/20 06:04:25;;;;;;;21.58;19.48;;;15.50;99.90;;;;;;5013347;28;20021;-74
2023/10/20 06:06:51;;;;;;;23.50;20.30;;;15.50;99.90;;;;;;5023345;28;20558;-74
2023/10/20 06:09:16;;;;;;;22.45;20.15;;;15.50;99.90;;;;;;5012140;28;20021;-74
2023/10/20 06:11:42;;;;;;;22.85;20.38;;;15.50;99.90;;;;;;5012932;28;20030;-74
2023/10/20 06:14:08;;;;;;;22.88;20.58;;;15.50;99.90;;;;;;5019083;28;20542;-74
2023/10/20 06:16:33;;;;;;;21.05;18.85;;;15.50;99.90;;;;;;5022863;28;20037;-74
2023/10/20 06:18:59;;;;;;;22.17;19.88;;;15.50;99.90;;;;;;5017395;28;20063;-74
2023/10/20 06:21:25;;;;;;;23.95;21.50;;;15.50;99.90;;;;;;5012537;28;20042;-74
2023/10/20 06:23:51;;;;;;;23.17;20.95;;;15.50;99.90;;;;;;5019874;28;20100;-74
2023/10/20 06:26:16;;;;;;;22.45;20.15;;;15.50;99.90;;;;;;5020227;28;20049;-73
2023/10/20 06:28:43;;;;;;;21.23;18.98;;;15.50;99.90;;;;;;5009617;28;20441;-74
2023/10/20 06:31:41;;;;;;;21.52;19.30;;;15.50;99.90;;;;;;5016907;28;20042;-74
2023/10/20 06:34:16;;;;;;;23.02;20.48;;;15.50;99.90;;;;;;5013439;28;20036;-74
2023/10/20 06:36:48;;;;;;;20.85;18.75;;;15.50;99.90;;;;;;5017694;28;20049;-74
2023/10/20 06:39:14;;;;;;;21.48;18.98;;;15.50;99.90;;;;;;5017812;28;20026;-75
2023/10/20 06:41:40;;;;;;;23.55;21.05;;;15.50;99.90;;;;;;5017081;28;20030;-73
2023/10/20 06:44:06;;;;;;;22.88;20.48;;;15.50;99.90;;;;;;5013878;28;20118;-73
2023/10/20 06:46:32;;;;;;;23.90;21.38;;;15.40;99.90;;;;;;5012525;28;20113;-72
2023/10/20 06:48:57;;;;;;;22.10;19.80;;;15.40;99.90;;;;;;5020181;28;20063;-74
2023/10/20 06:51:25;;;;;;;21.85;19.60;;;15.50;99.90;;;;;;5021976;28;20491;-73
2023/10/20 06:53:50;;;;;;;24.67;20.33;;;15.40;99.90;;;;;;5020830;28;20032;-73
2023/10/20 06:56:16;;;;;;;22.55;20.20;;;15.40;99.90;;;;;;5018793;28;20045;-73
2023/10/20 06:58:42;;;;;;;21.65;19.20;;;15.40;99.90;;;;;;5016930;28;20076;-72
2023/10/20 07:01:08;;;;;;;23.92;20.40;;;15.40;99.90;;;;;;5022073;28;20053;-74
2023/10/20 07:03:34;;;;;;;21.80;19.60;;;15.40;99.90;;;;;;5016487;28;20033;-73
2023/10/20 07:06:01;;;;;;;21.83;19.52;;;15.50;99.90;;;;;;5014198;28;20034;-71
2023/10/20 07:08:27;;;;;;;21.58;19.38;;;15.40;99.90;;;;;;5015940;28;20041;-71
2023/10/20 07:10:52;;;;;;;20.48;18.38;;;15.40;99.90;;;;;;5017818;28;20044;-71
2023/10/20 07:13:18;;;;;;;19.10;17.10;;;15.50;99.90;;;;;;5014101;28;20026;-71
2023/10/20 07:15:44;;;;;;;19.08;16.70;;;15.50;99.90;;;;;;5014166;28;20038;-72
2023/10/20 07:18:13;;;;;;;17.05;15.25;;;15.50;99.90;;;;;;5017534;28;20034;-72
2023/10/20 07:20:39;;;;;;;17.50;15.23;;;15.50;99.90;;;;;;5025120;28;20039;-72
2023/10/20 07:23:11;;;;;;;15.80;14.20;;;15.50;99.90;;;;;;5070575;28;20809;-73
2023/10/20 07:25:37;;;;;;;17.73;15.93;;;15.50;99.90;;;;;;5050470;28;20037;-73
2023/10/20 07:28:03;;;;;;;17.52;15.63;;;15.50;99.90;;;;;;5041795;28;20470;-72
2023/10/20 07:30:30;;;;;;;17.27;15.48;;;15.50;99.90;;;;;;5046696;28;20031;-74
2023/10/20 07:32:56;;;;;;;15.55;13.70;;;15.60;99.90;;;;;;5053035;28;20027;-72
2023/10/20 07:35:21;;;;;;;16.15;14.50;;;15.60;99.90;;;;;;5050973;28;20044;-75
2023/10/20 07:37:47;;;;;;;17.92;16.23;;;15.60;99.90;;;;;;5038904;28;20026;-73
2023/10/20 07:40:13;;;;;;;17.85;16.05;;;15.60;99.90;;;;;;5049727;28;20075;-73
2023/10/20 07:42:39;;;;;;;17.80;15.75;;;15.60;99.90;;;;;;5048544;28;20079;-72
2023/10/20 07:45:10;;;;;;;16.40;14.60;;;15.60;99.90;;;;;;5048800;28;20037;-72
2023/10/20 07:47:37;;;;;;;14.50;13.00;;;15.60;99.90;;;;;;5049831;28;20206;-73
2023/10/20 07:50:03;;;;;;;17.63;14.82;;;15.60;99.90;;;;;;5048742;28;20086;-74
2023/10/20 07:52:30;;;;;;;14.68;13.18;;;15.60;99.90;;;;;;5042570;28;20082;-72
2023/10/20 07:54:56;;;;;;;13.95;12.52;;;15.60;99.90;;;;;;5049738;28;20519;-72
2023/10/20 07:57:24;;;;;;;15.13;12.80;;;15.60;99.90;;;;;;5026681;28;20033;-73
2023/10/20 07:59:49;;;;;;;15.30;12.68;;;15.70;99.90;;;;;;5021513;28;20076;-73
2023/10/20 08:02:15;;;;;;;14.50;12.00;;;15.70;99.90;;;;;;5027373;28;20425;-72
2023/10/20 08:04:43;;;;;;;15.13;13.07;;;15.70;99.90;;;;;;5025022;28;20103;-72
2023/10/20 08:07:09;;;;;;;14.07;12.55;;;15.70;99.90;;;;;;5025380;28;20040;-71
2023/10/20 08:09:38;;;;;;;15.48;12.35;;;15.70;99.90;;;;;;5020923;28;20050;-72
2023/10/20 08:12:04;;;;;;;13.57;12.13;;;15.80;99.90;;;;;;5025155;28;20038;-71
2023/10/20 08:14:33;;;;;;;13.77;12.38;;;15.80;99.90;;;;;;5025192;28;20033;-71
2023/10/20 08:17:03;;;;;;;13.27;11.85;;;15.90;99.90;;;;;;5016853;28;20529;-73
2023/10/20 08:19:30;;;;;;;10.85;9.75;;;16.00;99.90;;;;;;5021573;28;20022;-72
2023/10/20 08:21:55;;;;;;;13.23;11.40;;;16.00;99.90;;;;;;5017388;28;20045;-72
2023/10/20 08:24:21;;;;;;;23.27;18.88;;;16.00;99.90;;;;;;5024487;28;20109;-72
2023/10/20 08:26:47;;;;;;;17.58;15.38;;;16.10;99.90;;;;;;5021143;28;20040;-73
2023/10/20 08:29:13;;;;;;;19.48;16.63;;;16.10;99.90;;;;;;5018807;28;20041;-72
2023/10/20 08:31:39;;;;;;;11.85;10.48;;;16.10;99.90;;;;;;5027246;28;20128;-73
2023/10/20 08:34:05;;;;;;;12.10;10.80;;;16.10;99.90;;;;;;5015326;28;20026;-72
2023/10/20 08:36:31;;;;;;;12.82;11.40;;;16.10;99.90;;;;;;5016146;28;20419;-72
2023/10/20 08:39:01;;;;;;;13.13;11.13;;;16.10;99.90;;;;;;5007380;28;20105;-74
2023/10/20 08:41:27;;;;;;;12.80;11.25;;;16.00;99.90;;;;;;5011986;28;20762;-72
2023/10/20 08:43:55;;;;;;;13.60;11.75;;;16.00;99.90;;;;;;5005931;28;20025;-71
2023/10/20 08:46:23;;;;;;;14.85;11.38;;;16.00;99.90;;;;;;5011393;28;20045;-73
2023/10/20 08:48:49;;;;;;;13.75;12.13;;;16.00;99.90;;;;;;5011863;28;20034;-71
2023/10/20 08:51:17;;;;;;;13.52;12.13;;;16.00;99.90;;;;;;5013676;28;20115;-70
2023/10/20 08:53:43;;;;;;;14.25;12.68;;;16.00;99.90;;;;;;5005799;28;20387;-72
2023/10/20 08:56:11;;;;;;;15.82;12.23;;;16.00;99.90;;;;;;5014003;28;20065;-70
2023/10/20 08:58:37;;;;;;;14.43;12.18;;;16.00;99.90;;;;;;5015000;28;20036;-70
2023/10/20 09:01:05;;;;;;;13.60;11.55;;;16.00;99.90;;;;;;5006814;28;20233;-73
2023/10/20 09:03:45;;;;;;;12.18;10.85;;;16.10;99.90;;;;;;5010735;28;20061;-73
2023/10/20 09:06:14;;;;;;;12.07;10.75;;;16.00;99.90;;;;;;5007491;28;20067;-70
2023/10/20 09:08:41;;;;;;;12.27;10.30;;;16.10;99.90;;;;;;5005574;28;20427;-71
2023/10/20 09:11:07;;;;;;;10.77;8.85;;;16.10;99.90;;;;;;5004642;28;20312;-73
2023/10/20 09:13:36;;;;;;;9.20;7.55;;;16.00;99.90;;;;;;5013776;28;20037;-71
2023/10/20 09:16:08;;;;;;;9.48;8.10;;;16.00;99.90;;;;;;5013557;28;20049;-70
2023/10/20 09:18:51;;;;;;;9.48;6.57;;;15.90;99.90;;;;;;5009591;28;20033;-72
2023/10/20 09:21:19;;;;;;;6.80;5.03;;;15.90;99.70;;;;;;5006261;28;20164;-72
2023/10/20 09:23:58;;;;;;;7.47;5.20;;;15.80;99.40;;;;;;5017499;28;20026;-72
2023/10/20 09:26:26;;;;;;;8.25;4.65;;;15.80;99.30;;;;;;5010639;28;20096;-73
2023/10/20 09:28:56;;;;;;;5.95;4.20;;;15.60;99.10;;;;;;5007261;28;20046;-72
2023/10/20 09:31:23;;;;;;;8.75;4.85;;;15.60;99.10;;;;;;5009627;28;20049;-71
2023/10/20 09:33:49;;;;;;;8.73;4.63;;;15.60;99.00;;;;;;5006583;28;20478;-72
2023/10/20 09:36:16;;;;;;;8.05;4.57;;;15.60;99.00;;;;;;5010532;28;20044;-74
2023/10/20 09:38:56;;;;;;;8.48;4.70;;;15.50;98.80;;;;;;5009356;28;20081;-72
2023/10/20 09:41:23;;;;;;;8.95;5.03;;;15.50;98.80;;;;;;5001518;28;20876;-72
2023/10/20 09:44:02;;;;;;;10.30;5.07;;;15.50;98.90;;;;;;4994651;28;20033;-74
2023/10/20 09:46:46;;;;;;;9.45;5.40;;;15.60;99.00;;;;;;5007969;28;20041;-72
2023/10/20 09:49:19;;;;;;;7.17;4.50;;;15.60;98.90;;;;;;5016105;28;20029;-72
2023/10/20 09:51:47;;;;;;;7.93;4.43;;;15.60;98.90;;;;;;5001611;28;20053;-72
2023/10/20 09:54:17;;;;;;;9.02;4.47;;;15.60;98.90;;;;;;5010750;28;20092;-73
2023/10/20 09:56:44;;;;;;;6.72;3.70;;;15.60;98.90;;;;;;5009104;28;20061;-74
2023/10/20 09:59:20;;;;;;;8.38;3.95;;;15.60;98.90;;;;;;5017436;28;20031;-73
2023/10/20 10:01:47;;;;;;;6.13;3.30;;;15.60;98.80;;;;;;5008704;28;20433;-73
2023/10/20 10:04:13;;;;;;;5.68;3.03;;;15.60;98.70;;;;;;4994987;28;20145;-73
2023/10/20 10:06:39;;;;;;;5.88;3.20;;;15.60;98.80;;;;;;5007121;28;20056;-72
2023/10/20 10:09:05;;;;;;;6.60;4.00;;;15.70;98.80;;;;;;5003178;28;20037;-73
2023/10/20 10:11:37;;;;;;;7.47;3.88;;;15.80;98.80;;;;;;5014609;28;20030;-74
2023/10/20 10:14:07;;;;;;;5.63;3.55;;;15.80;98.70;;;;;;5008760;28;20029;-71
2023/10/20 10:16:47;;;;;;;7.03;3.50;;;15.80;98.70;;;;;;5010720;28;20034;-71
2023/10/20 10:19:13;;;;;;;5.40;3.40;;;15.80;98.40;;;;;;5004612;28;20018;-72
2023/10/20 10:21:40;;;;;;;6.57;3.72;;;15.80;98.50;;;;;;5008844;28;20049;-72
2023/10/20 10:24:16;;;;;;;4.93;3.20;;;15.80;98.40;;;;;;5013720;28;20386;-73
2023/10/20 10:26:57;;;;;;;5.15;3.45;;;15.80;98.30;;;;;;5003247;28;20429;-74
2023/10/20 10:29:57;;;;;;;5.90;3.53;;;15.80;98.40;;;;;;5010134;28;20038;-74
2023/10/20 10:32:27;;;;;;;7.57;3.85;;;15.80;98.40;;;;;;5005521;28;20026;-72
2023/10/20 10:34:53;;;;;;;6.47;3.83;;;15.80;98.50;;;;;;4995685;28;20057;-75
2023/10/20 10:37:37;;;;;;;6.50;4.07;;;15.80;98.50;;;;;;4995424;28;20045;-72
2023/10/20 10:40:10;;;;;;;7.35;4.47;;;15.80;98.60;;;;;;4983988;28;21579;-75
2023/10/20 10:42:46;;;;;;;7.75;4.60;;;15.70;98.50;;;;;;4992810;28;20195;-75
2023/10/20 10:45:34;;;;;;;7.55;4.95;;;15.80;98.50;;;;;;4988609;28;20054;-73
2023/10/20 10:48:08;;;;;;;7.38;4.90;;;15.80;98.50;;;;;;4988998;28;20022;-71
2023/10/20 10:50:40;;;;;;;8.90;5.35;;;15.80;98.60;;;;;;4993760;28;20034;-72
2023/10/20 10:53:06;;;;;;;8.00;5.35;;;15.80;98.50;;;;;;4995331;28;20045;-74
2023/10/20 10:55:35;;;;;;;8.85;5.60;;;15.80;98.50;;;;;;4996010;28;20455;-74
2023/10/20 10:58:02;;;;;;;8.80;5.97;;;15.80;98.40;;;;;;4996212;28;20034;-74
2023/10/20 11:00:29;;;;;;;7.85;5.38;;;15.70;98.40;;;;;;4991494;28;21277;-75
2023/10/20 11:02:57;;;;;;;7.80;6.03;;;15.70;98.40;;;;;;4995771;28;20045;-73
2023/10/20 11:05:23;;;;;;;8.07;6.43;;;15.70;98.50;;;;;;4989974;28;20117;-72
2023/10/20 11:08:18;;;;;;;9.23;6.68;;;15.70;98.40;;;;;;4995058;28;20491;-74
2023/10/20 11:10:45;;;;;;;8.63;6.85;;;15.70;98.40;;;;;;4987954;28;20045;-73
2023/10/20 11:13:13;;;;;;;9.20;7.28;;;15.80;98.50;;;;;;4992387;28;20487;-75
2023/10/20 11:15:40;;;;;;;9.45;7.68;;;15.70;98.40;;;;;;4989040;28;20034;-74
2023/10/20 11:18:06;;;;;;;10.60;7.57;;;15.70;98.50;;;;;;4993745;28;20034;-74
2023/10/20 11:20:41;;;;;;;9.18;7.43;;;15.70;98.50;;;;;;4989753;28;20118;-70
2023/10/20 11:23:07;;;;;;;;;;;15.70;98.50;;;;;;4997128;28;20486;-73
2023/10/20 11:25:34;;;;;;;10.45;8.25;;;15.80;98.50;;;;;;4992762;28;19917;-72
2023/10/20 11:28:02;;;;;;;10.38;8.85;;;15.70;98.40;;;;;;4994583;28;20026;-73
2023/10/20 11:30:31;;;;;;;9.90;8.25;;;15.70;98.40;;;;;;4996834;28;20044;-72
2023/10/20 11:32:58;;;;;;;11.45;9.27;;;15.60;98.50;;;;;;4991514;28;20573;-74
2023/10/20 11:35:24;;;;;;;11.48;9.02;;;15.60;98.60;;;;;;4992024;28;20026;-75
2023/10/20 11:37:51;;;;;;;10.70;8.45;;;15.70;98.60;;;;;;4991809;28;20487;-73
2023/10/20 11:40:17;;;;;;;10.65;8.70;;;15.70;98.50;;;;;;4988327;28;20145;-72
2023/10/20 11:42:44;;;;;;;12.68;9.10;;;15.70;98.50;;;;;;4994723;28;20030;-72
2023/10/20 11:45:13;;;;;;;10.18;8.27;;;15.70;98.50;;;;;;5001138;28;20084;-73
2023/10/20 11:47:39;;;;;;;10.48;8.10;;;15.70;98.50;;;;;;5001732;28;20025;-74
2023/10/20 11:50:08;;;;;;;9.55;7.70;;;15.80;98.50;;;;;;5004056;28;20034;-73
2023/10/20 11:52:41;;;;;;;10.40;8.00;;;15.90;98.30;;;;;;4998644;28;20126;-74
2023/10/20 11:55:11;;;;;;;9.90;7.68;;;15.90;98.20;;;;;;4997731;28;20375;-72
2023/10/20 11:57:37;;;;;;;9.32;7.43;;;15.90;98.30;;;;;;5006294;28;20099;-72
2023/10/20 12:00:07;;;;;;;9.00;7.97;;;15.90;98.10;;;;;;4999267;28;20473;-73
2023/10/20 12:02:38;;;;;;;10.18;8.73;;;15.90;98.00;;;;;;5004214;28;20570;-72
2023/10/20 12:05:05;;;;;;;10.70;8.75;;;15.90;98.00;;;;;;5005794;28;20145;-73
2023/10/20 12:07:32;;;;;;;11.93;9.70;;;15.90;97.90;;;;;;5006218;28;20024;-72
2023/10/20 12:09:58;;;;;;;10.48;8.30;;;15.90;97.90;;;;;;5004189;28;20638;-71
2023/10/20 12:12:24;;;;;;;11.90;8.77;;;15.90;98.00;;;;;;5013661;28;20034;-73
2023/10/20 12:14:50;;;;;;;10.82;8.70;;;16.00;98.10;;;;;;4999082;28;20038;-71
2023/10/20 12:17:16;;;;;;;11.57;8.43;;;16.00;97.90;;;;;;5004626;28;20100;-73
2023/10/20 12:19:41;;;;;;;13.15;8.07;;;16.10;97.90;;;;;;5008815;28;20053;-71
2023/10/20 12:22:08;;;;;;;9.77;8.35;;;16.00;97.90;;;;;;5009637;28;20042;-71
2023/10/20 12:24:35;;;;;;;11.05;8.10;;;16.10;97.80;;;;;;5010601;28;20072;-72
2023/10/20 12:27:01;;;;;;;10.07;8.40;;;16.10;97.70;;;;;;5011139;28;20029;-71
2023/10/20 12:29:28;;;;;;;10.20;7.82;;;16.10;97.60;;;;;;5006234;28;20061;-70
2023/10/20 12:31:54;;;;;;;11.10;7.90;;;16.10;97.60;;;;;;5010738;28;20542;-72
2023/10/20 12:34:20;;;;;;;9.25;7.32;;;16.10;97.40;;;;;;5008918;28;20104;-71
2023/10/20 12:36:48;;;;;;;9.60;7.13;;;16.10;97.20;;;;;;5003389;28;20506;-71
2023/10/20 12:39:20;;;;;;;10.70;7.63;;;16.00;97.20;;;;;;5012893;28;20052;-73
2023/10/20 12:41:49;;;;;;;9.82;7.65;;;15.90;97.30;;;;;;5014018;28;20050;-73
2023/10/20 12:44:17;;;;;;;9.60;7.57;;;15.90;97.50;;;;;;5004871;28;20030;-72
2023/10/20 12:46:44;;;;;;;10.95;7.85;;;15.90;97.50;;;;;;5009632;28;20030;-72
2023/10/20 12:49:10;;;;;;;15.77;9.00;;;15.90;97.60;;;;;;5006999;28;20044;-72
2023/10/20 12:51:37;;;;;;;10.32;8.75;;;15.80;97.70;;;;;;5012372;28;20026;-71
2023/10/20 12:54:04;;;;;;;11.30;9.02;;;15.80;97.70;;;;;;5008370;28;20026;-71
2023/10/20 12:56:30;;;;;;;10.63;8.55;;;15.80;97.80;;;;;;5013147;28;20030;-71
2023/10/20 12:58:56;;;;;;;13.13;9.45;;;15.90;97.80;;;;;;5004568;28;20033;-72
2023/10/20 13:01:22;;;;;;;15.63;10.80;;;16.00;97.70;;;;;;5002988;28;20046;-73
2023/10/20 13:03:49;;;;;;;12.93;9.55;;;16.00;97.60;;;;;;5007005;28;20065;-72
2023/10/20 13:06:15;;;;;;;10.90;9.48;;;15.90;97.70;;;;;;5003508;28;20053;-72